Data for 07/04/2016

Time Sea-Level Adjusted Pressure Absolute Pressure Temperature Relative Humidity Dew Point   
(mb) (inHg) (mb) (inHg) (C) (F) (%) (C) (F)
00:05 1017 30.03 846 24.98 15 59.1 64 8.3 46.9
00:10 1017 30.03 846 24.98 15 59.1 62 8 46.4
00:15 1017 30.03 846 24.98 15.2 59.3 63 8.1 46.6
00:20 1017 30.03 846 24.98 15 59.1 64 8.3 46.9
00:25 1017 30.03 846 24.98 14.9 58.8 63 8 46.4
00:30 1017 30.03 846 24.98 15 58.9 62 7.8 46
00:35 1017 30.03 846 24.98 14.9 58.9 64 8.1 46.7
00:40 1017 30.03 846 24.98 14.6 58.2 66 8.3 47
00:45 1017 30.03 846 24.98 14.1 57.3 68 8.2 46.8
00:50 1017 30.03 846 24.98 13.9 56.9 67 8 46.3
00:55 1017 30.03 846 24.98 13.9 56.9 67 8 46.4
01:00 1017 30.03 846 24.98 13.9 56.9 67 8 46.4
01:05 1017 30.03 846 24.98 13.8 56.9 68 8 46.4
01:10 1017 30.03 846 24.98 13.8 56.9 66 7.7 45.8
01:15 1017 30.03 846 24.98 14 57.2 66 7.7 45.8
01:20 1017 30.03 846 24.98 14 57.3 65 7.6 45.7
01:25 1017 30.03 846 24.98 14 57.2 67 8 46.3
01:30 1017 30.03 846 24.98 13.8 56.9 68 8 46.4
01:35 1017 30.03 846 24.98 13.7 56.6 68 7.8 46.1
01:40 1017 30.03 846 24.98 13.6 56.5 66 7.5 45.5
01:45 1017 30.03 846 24.98 13.8 56.9 64 7.2 45
01:50 1017 30.03 846 24.98 14.2 57.5 63 7.3 45.1
01:55 1017 30.03 846 24.98 14.2 57.6 63 7.3 45.1
02:00 1017 30.03 846 24.98 14.1 57.3 63 7.3 45.1
02:05 1017 30.03 846 24.98 14 57.2 64 7.3 45.1
02:10 1017 30.03 846 24.98 13.8 56.8 66 7.5 45.5
02:15 1017 30.03 846 24.98 13.6 56.4 66 7.3 45.2
02:20 1017 30.03 846 24.98 13.4 56.1 67 7.4 45.3
02:25 1017 30.03 846 24.98 13.3 55.9 67 7.4 45.3
02:30 1017 30.03 846 24.98 13.1 55.6 68 7.4 45.4
02:35 1017 30.03 846 24.98 13.1 55.6 68 7.4 45.4
02:40 1017 30.03 846 24.98 13.1 55.6 69 7.5 45.5
02:45 1017 30.03 846 24.98 13 55.4 69 7.4 45.4
02:50 1017 30.03 846 24.98 13 55.4 68 7.2 45
02:55 1017 30.03 846 24.98 13.1 55.5 67 7.2 44.9
03:00 1017 30.03 846 24.98 13.1 55.5 67 7 44.7
03:05 1017 30.03 846 24.98 13.2 55.8 66 6.9 44.5
03:10 1017 30.03 846 24.98 13.4 56.1 64 6.8 44.2
03:15 1017 30.03 846 24.98 13.6 56.4 64 6.9 44.4
03:20 1017 30.03 846 24.98 13.4 56.2 63 6.6 44
03:25 1017 30.03 846 24.98 13.2 55.8 65 6.8 44.2
03:30 1017 30.03 846 24.98 12.8 55.1 66 6.8 44.2
03:35 1017 30.03 846 24.98 12.4 54.4 68 6.8 44.2
03:40 1017 30.03 846 24.98 12.4 54.3 69 6.8 44.3
03:45 1017 30.03 846 24.98 12.2 53.9 69 6.8 44.2
03:50 1017 30.03 846 24.98 12 53.6 70 6.8 44.2
03:55 1017 30.03 846 24.98 11.9 53.4 71 6.8 44.3
04:00 1017 30.03 846 24.98 11.8 53.3 71 6.8 44.2
04:05 1017 30.03 846 24.98 11.8 53.2 70 6.5 43.7
04:10 1017 30.03 846 24.98 11.7 53.1 70 6.4 43.6
04:15 1017 30.03 846 24.98 11.9 53.4 69 6.3 43.4
04:20 1017 30.03 846 24.98 12.2 53.9 67 6.2 43.1
04:25 1017 30.03 846 24.98 12.5 54.4 65 6.2 43.2
04:30 1017 30.03 846 24.98 12.5 54.4 65 6.1 42.9
04:35 1017 30.03 846 24.98 12.5 54.4 64 5.8 42.5
04:40 1017 30.03 846 24.98 12.8 55 63 5.9 42.6
04:45 1017 30.03 847 25.01 13.1 55.5 61 5.7 42.2
04:50 1017 30.03 847 25.01 13.2 55.8 60 5.7 42.3
04:55 1017 30.03 847 25.01 13.2 55.7 60 5.6 42.1
05:00 1017 30.03 847 25.01 13.2 55.7 61 5.9 42.5
05:05 1017 30.03 847 25.01 12.9 55.1 60 5.4 41.8
05:10 1017 30.03 847 25.01 12.7 54.9 61 5.4 41.7
05:15 1017 30.03 847 25.01 13.1 55.5 60 5.6 42
05:20 1017 30.03 847 25.01 13.1 55.5 61 5.9 42.6
05:25 1017 30.03 847 25.01 12.8 55.1 62 5.7 42.3
05:30 1017 30.03 847 25.01 12.8 55 64 6.1 43
05:35 1017 30.03 847 25.01 12.4 54.4 65 6 42.8
05:40 1017 30.03 847 25.01 12.6 54.7 63 5.9 42.6
05:45 1018 30.06 847 25.01 12.9 55.2 62 5.8 42.4
05:50 1018 30.06 847 25.01 13 55.4 61 5.6 42.1
05:55 1018 30.06 847 25.01 13.3 55.9 60 5.7 42.2
06:00 1018 30.06 847 25.01 13.5 56.2 60 5.9 42.6
06:05 1018 30.06 847 25.01 13.5 56.4 58 5.6 42.1
06:10 1018 30.06 847 25.01 13.6 56.4 59 5.7 42.2
06:15 1018 30.06 847 25.01 13.7 56.6 60 6.1 42.9
06:20 1018 30.06 847 25.01 13.6 56.4 64 6.9 44.3
06:25 1018 30.06 847 25.01 13.4 56.1 65 7 44.6
06:30 1018 30.06 847 25.01 13.4 56 64 6.8 44.2
06:35 1018 30.06 847 25.01 13.5 56.3 64 6.9 44.5
06:40 1018 30.06 847 25.01 13.4 56.2 63 6.6 43.9
06:45 1018 30.06 847 25.01 13.9 57 62 6.7 44.1
06:50 1018 30.06 847 25.01 14.7 58.4 57 6.4 43.4
06:55 1018 30.06 847 25.01 14.9 58.8 59 7.1 44.7
07:00 1017 30.03 847 25.01 15.2 59.3 56 6.5 43.6
07:05 1017 30.03 847 25.01 16.1 60.9 54 6.9 44.3
07:10 1017 30.03 847 25.01 16.7 62 52 6.8 44.3
07:15 1017 30.03 847 25.01 16.8 62.3 50 6.4 43.5
07:20 1017 30.03 847 25.01 17 62.5 51 6.8 44.3
07:25 1017 30.03 847 25.01 17.1 62.7 48 6.1 43
07:30 1018 30.06 847 25.01 17 62.7 51 6.8 44.2
07:35 1017 30.03 847 25.01 17.4 63.3 49 6.6 43.9
07:40 1017 30.03 847 25.01 18 64.3 45 6.1 43
07:45 1017 30.03 847 25.01 18.3 64.9 41 5 41
07:50 1017 30.03 847 25.01 18.7 65.6 38 4.1 39.4
07:55 1018 30.06 847 25.01 19.2 66.6 37 4.2 39.6
08:00 1017 30.03 847 25.01 19.1 66.3 37 4.2 39.5
08:05 1018 30.06 847 25.01 19.4 66.9 35 3.9 38.9
08:10 1018 30.06 847 25.01 20 68 36 4.6 40.2
08:15 1018 30.06 847 25.01 20 68.1 39 5.8 42.5
08:20 1018 30.06 847 25.01 19.8 67.7 40 6.1 43
08:25 1017 30.03 847 25.01 19.7 67.5 38 5.3 41.5
08:30 1017 30.03 847 25.01 19.9 67.9 39 5.7 42.2
08:35 1017 30.03 847 25.01 19.8 67.7 42 6.9 44.4
08:40 1017 30.03 847 25.01 19.6 67.3 42 6.4 43.6
08:45 1017 30.03 847 25.01 20.2 68.4 42 7 44.7
08:50 1017 30.03 847 25.01 20.4 68.7 40 6.5 43.7
08:55 1017 30.03 847 25.01 20.1 68.2 41 6.5 43.6
09:00 1017 30.03 846 24.98 20 68.1 42 7.1 44.7
09:05 1017 30.03 846 24.98 20.6 69 42 7.5 45.5
09:10 1017 30.03 846 24.98 20.4 68.7 41 6.9 44.4
09:15 1017 30.03 846 24.98 20.1 68.2 42 6.8 44.2
09:20 1017 30.03 846 24.98 20.8 69.4 40 6.9 44.4
09:25 1017 30.03 846 24.98 21.1 69.9 36 5.7 42.3
09:30 1017 30.03 846 24.98 21.2 70.2 34 5 41.1
09:35 1017 30.03 846 24.98 21.6 70.8 33 4.6 40.3
09:40 1017 30.03 846 24.98 21.9 71.5 34 5.5 41.9
09:45 1017 30.03 846 24.98 22 71.5 30 3.9 39
09:50 1017 30.03 846 24.98 21.9 71.4 34 5.7 42.3
09:55 1017 30.03 846 24.98 21.6 70.9 32 4.5 40.1
10:00 1017 30.03 846 24.98 21.7 71 32 4.3 39.7
10:05 1017 30.03 846 24.98 21.9 71.4 30 3.7 38.7
10:10 1017 30.03 846 24.98 22.8 73.1 31 5 40.9
10:15 1017 30.03 846 24.98 23 73.5 25 2 35.6
10:20 1017 30.03 846 24.98 22.3 72.1 26 2.1 35.7
10:25 1017 30.03 846 24.98 21.9 71.4 28 2.9 37.3
10:30 1016 30 846 24.98 22.2 72 29 3.3 38
10:35 1016 30 846 24.98 22.2 72 29 3.4 38.2
10:40 1016 30 846 24.98 22.4 72.3 27 2.7 36.9
10:45 1016 30 846 24.98 22.7 72.9 28 3.3 37.9
10:50 1016 30 845 24.95 23.2 73.7 29 4.2 39.6
10:55 1016 30 845 24.95 23.2 73.8 28 3.7 38.7
11:00 1016 30 845 24.95 23 73.5 28 3.6 38.5
11:05 1016 30 845 24.95 23.5 74.2 26 3.4 38
11:10 1016 30 845 24.95 23.5 74.2 27 3.7 38.7
11:15 1016 30 845 24.95 23.5 74.4 26 3.3 37.9
11:20 1016 30 845 24.95 22.7 72.9 27 3.1 37.5
11:25 1016 30 845 24.95 23.3 74 26 2.7 36.9
11:30 1016 30 845 24.95 23.7 74.6 26 3.2 37.7
11:35 1016 30 845 24.95 23.9 75 26 3.5 38.2
11:40 1016 30 845 24.95 24.2 75.5 25 3.3 38
11:45 1016 30 845 24.95 24.3 75.7 26 3.6 38.5
11:50 1016 30 845 24.95 23.9 75.1 24 2.2 35.9
11:55 1016 30 845 24.95 23.7 74.6 25 2.9 37.1
12:00 1016 30 845 24.95 24 75.2 25 2.9 37.2
12:05 1016 30 845 24.95 24.2 75.6 24 2.8 37
12:10 1016 30 845 24.95 24.5 76 24 3 37.3
12:15 1016 30 845 24.95 24.7 76.4 24 2.8 37.1
12:20 1016 30 845 24.95 24.6 76.2 23 2.5 36.5
12:25 1015 29.97 845 24.95 24.1 75.4 24 2.5 36.4
12:30 1015 29.97 845 24.95 24.1 75.4 24 2.6 36.7
12:35 1015 29.97 844 24.92 24.1 75.4 25 3 37.4
12:40 1015 29.97 844 24.92 23.9 74.9 25 2.7 36.9
12:45 1015 29.97 844 24.92 24.3 75.8 24 2.7 36.9
12:50 1015 29.97 844 24.92 24.7 76.5 22 1.9 35.4
12:55 1015 29.97 844 24.92 25.5 78 22 2.3 36.1
13:00 1015 29.97 844 24.92 25.6 78 21 2.1 35.8
13:05 1015 29.97 844 24.92 25.1 77.2 21 1.3 34.3
13:10 1015 29.97 844 24.92 24.4 75.9 23 2 35.6
13:15 1015 29.97 844 24.92 24.6 76.2 22 1.7 35.1
13:20 1014 29.94 844 24.92 25.4 77.6 21 1.7 35.1
13:25 1014 29.94 844 24.92 25.6 78.2 21 2.2 35.9
13:30 1014 29.94 844 24.92 25.1 77.1 22 1.9 35.5
13:35 1014 29.94 844 24.92 25.8 78.5 21 2 35.6
13:40 1014 29.94 844 24.92 26.1 79 21 2.4 36.4
13:45 1014 29.94 843 24.89 26.2 79.2 20 1.8 35.3
13:50 1014 29.94 843 24.89 25.3 77.6 21 1.6 34.8
13:55 1014 29.94 843 24.89 26 78.7 18 0.3 32.6
14:00 1014 29.94 843 24.89 26.3 79.4 18 0.4 32.7
14:05 1014 29.94 843 24.89 26.7 80.1 19 1.1 34.1
14:10 1014 29.94 843 24.89 26.7 80 19 1.2 34.2
14:15 1014 29.94 843 24.89 27 80.6 17 0.1 32.2
14:20 1014 29.94 843 24.89 26.9 80.5 17 0.4 32.7
14:25 1014 29.94 843 24.89 26.9 80.4 19 1.8 35.2
14:30 1014 29.94 843 24.89 26.7 80.1 18 0.5 32.9
14:35 1014 29.94 843 24.89 27.3 81.2 17 0.6 33.1
14:40 1014 29.94 843 24.89 27.8 82.1 16 0.2 32.4
14:45 1014 29.94 843 24.89 27.7 81.8 17 0.5 33
14:50 1014 29.94 843 24.89 27.7 81.8 15 -0.7 30.7
14:55 1013 29.91 843 24.89 27.5 81.4 16 -0.6 30.9
15:00 1013 29.91 843 24.89 28 82.5 15 -0.4 31.4
15:05 1013 29.91 843 24.89 27.2 80.9 17 -0 31.9
15:10 1013 29.91 842 24.86 27.7 81.8 15 -1.4 29.4
15:15 1013 29.91 842 24.86 27.4 81.4 14 -2.1 28.1
15:20 1013 29.91 842 24.86 27.9 82.2 15 -1.2 29.9
15:25 1013 29.91 842 24.86 28.2 82.7 17 1 33.7
15:30 1013 29.91 842 24.86 28.1 82.6 16 -0.1 31.8
15:35 1013 29.91 842 24.86 28.2 82.8 15 -0.7 30.7
15:40 1013 29.91 842 24.86 27.9 82.2 16 0.1 32.2
15:45 1013 29.91 842 24.86 27.7 81.8 17 1.1 33.9
15:50 1013 29.91 842 24.86 27.5 81.4 17 0.8 33.4
15:55 1013 29.91 842 24.86 28 82.5 14 -2 28.4
16:00 1013 29.91 842 24.86 28.5 83.3 13 -1.9 28.5
16:05 1013 29.91 842 24.86 28.7 83.6 13 -1.9 28.6
16:10 1013 29.91 842 24.86 28.5 83.3 13 -2.3 27.9
16:15 1012 29.88 842 24.86 29.2 84.6 13 -1.6 29.1
16:20 1012 29.88 842 24.86 29.7 85.5 13 -1.4 29.6
16:25 1012 29.88 842 24.86 30 86 12 -2.1 28.3
16:30 1012 29.88 842 24.86 30.1 86.1 12 -1.6 29.2
16:35 1012 29.88 841 24.83 29.6 85.2 12 -2.2 28.1
16:40 1012 29.88 841 24.83 29.3 84.7 12 -2.5 27.5
16:45 1012 29.88 841 24.83 28.7 83.7 13 -2.6 27.4
16:50 1012 29.88 841 24.83 28.8 83.9 12 -2.7 27.1
16:55 1012 29.88 841 24.83 28.5 83.4 11 -4.2 24.4
17:00 1012 29.88 841 24.83 28.4 83.1 11 -4.5 23.8
17:05 1012 29.88 841 24.83 27.9 82.3 10 -6 21.1
17:10 1012 29.88 841 24.83 27.9 82.2 11 -5.5 22.2
17:15 1012 29.88 841 24.83 28.1 82.5 10 -5.7 21.8
17:20 1012 29.88 841 24.83 28.1 82.7 11 -4.4 24.2
17:25 1012 29.88 841 24.83 28.1 82.6 11 -4.5 23.9
17:30 1012 29.88 841 24.83 27.8 82.1 12 -3.8 25.1
17:35 1012 29.88 841 24.83 27.7 81.8 13 -3.2 26.3
17:40 1012 29.88 841 24.83 27.6 81.7 12 -4.5 23.9
17:45 1012 29.88 841 24.83 27.6 81.7 12 -4 24.7
17:50 1012 29.88 841 24.83 27.6 81.6 12 -4.5 23.8
17:55 1012 29.88 841 24.83 27.2 81 12 -4.1 24.6
18:00 1012 29.88 841 24.83 27.4 81.3 12 -4.1 24.6
18:05 1012 29.88 841 24.83 27.3 81.2 14 -2.5 27.4
18:10 1012 29.88 841 24.83 26.6 79.9 13 -3.5 25.6
18:15 1012 29.88 841 24.83 25.9 78.6 14 -3.6 25.6
18:20 1012 29.88 841 24.83 25.7 78.3 14 -3.8 25.1
18:25 1012 29.88 841 24.83 25.5 78 14 -3.5 25.7
18:30 1012 29.88 842 24.86 25.2 77.4 14 -3.6 25.6
18:35 1012 29.88 842 24.86 25 76.9 15 -3.3 26
18:40 1013 29.91 842 24.86 24.9 76.8 15 -3.4 25.8
18:45 1013 29.91 842 24.86 24.5 76 15 -3.3 26
18:50 1013 29.91 842 24.86 24.1 75.3 17 -2 28.4
18:55 1013 29.91 842 24.86 23.8 74.8 17 -2.3 27.9
19:00 1013 29.91 842 24.86 23.5 74.3 16 -3.8 25.2
19:05 1013 29.91 843 24.89 23.3 73.9 17 -3.1 26.4
19:10 1014 29.94 843 24.89 23.1 73.5 18 -2.7 27.2
19:15 1014 29.94 843 24.89 22.7 72.9 18 -2.3 27.8
19:20 1014 29.94 843 24.89 22.5 72.4 18 -2.6 27.3
19:25 1014 29.94 843 24.89 22.3 72.1 19 -2.5 27.5
19:30 1014 29.94 843 24.89 22 71.5 18 -3.1 26.5
19:35 1014 29.94 843 24.89 21.7 71.1 19 -2.8 26.9
19:40 1014 29.94 844 24.92 21.5 70.8 19 -3 26.7
19:45 1015 29.97 844 24.92 21.4 70.6 19 -3.3 26.1
19:50 1015 29.97 844 24.92 21.3 70.4 19 -3.4 25.9
19:55 1015 29.97 844 24.92 21.2 70.1 19 -3.2 26.2
20:00 1015 29.97 844 24.92 21 69.7 19 -3.1 26.4
20:05 1015 29.97 844 24.92 20.8 69.4 20 -2.9 26.8
20:10 1015 29.97 844 24.92 20.6 69.1 20 -2.7 27.1
20:15 1015 29.97 845 24.95 20.4 68.7 21 -2.5 27.4
20:20 1015 29.97 845 24.95 20.2 68.3 22 -2.3 27.9
20:25 1016 30 845 24.95 20 68 22 -2.3 27.9
20:30 1016 30 845 24.95 19.8 67.7 22 -2.3 27.9
20:35 1016 30 845 24.95 19.7 67.4 23 -2 28.3
20:40 1016 30 845 24.95 19.5 67 23 -2 28.4
20:45 1016 30 845 24.95 19.3 66.8 24 -1.9 28.6
20:50 1016 30 845 24.95 19.2 66.6 23 -2.1 28.2
20:55 1016 30 845 24.95 19.1 66.3 24 -1.9 28.5
21:00 1016 30 846 24.98 19 66.2 24 -1.8 28.8
21:05 1016 30 846 24.98 18.8 65.8 25 -1.7 28.9
21:10 1017 30.03 846 24.98 18.6 65.5 24 -1.9 28.5
21:15 1017 30.03 846 24.98 18.5 65.4 26 -1.1 30.1
21:20 1017 30.03 846 24.98 18.1 64.6 27 -0.9 30.5
21:25 1017 30.03 846 24.98 17.7 63.9 27 -1.2 29.8
21:30 1017 30.03 846 24.98 17.6 63.6 28 -1.2 29.8
21:35 1017 30.03 846 24.98 17.5 63.5 28 -1.3 29.7
21:40 1017 30.03 846 24.98 17.5 63.4 28 -1.2 29.8
21:45 1017 30.03 846 24.98 17.4 63.3 28 -1.2 29.9
21:50 1017 30.03 846 24.98 17.3 63.2 28 -1.1 29.9
21:55 1017 30.03 846 24.98 17.3 63.1 28 -1.2 29.8
22:00 1017 30.03 846 24.98 17.3 63.1 28 -1.2 29.9
22:05 1017 30.03 846 24.98 17.2 63 28 -1.2 29.9
22:10 1017 30.03 846 24.98 17.1 62.8 28 -1.3 29.6
22:15 1017 30.03 847 25.01 17 62.6 29 -1 30.1
22:20 1017 30.03 847 25.01 16.9 62.5 29 -0.9 30.3
22:25 1017 30.03 847 25.01 16.8 62.2 29 -1.3 29.7
22:30 1018 30.06 847 25.01 16.7 62 29 -1.2 29.9
22:35 1018 30.06 847 25.01 16.6 61.9 30 -1 30.2
22:40 1018 30.06 847 25.01 16.5 61.7 30 -0.9 30.5
22:45 1018 30.06 847 25.01 16.5 61.6 29 -1.4 29.6
22:50 1018 30.06 847 25.01 16.4 61.5 29 -1.4 29.5
22:55 1018 30.06 847 25.01 16.3 61.4 30 -1.2 29.8
23:00 1018 30.06 847 25.01 16.2 61.2 30 -1.1 30
23:05 1018 30.06 847 25.01 16.1 61 30 -1.2 29.8
23:10 1018 30.06 847 25.01 16 60.9 31 -1.2 29.9
23:15 1018 30.06 847 25.01 16 60.8 31 -1.1 29.9
23:20 1018 30.06 847 25.01 16 60.7 31 -1.1 29.9
23:25 1018 30.06 847 25.01 15.9 60.6 30 -1.4 29.4
23:30 1018 30.06 847 25.01 15.8 60.5 31 -1.3 29.6
23:35 1018 30.06 847 25.01 15.8 60.4 31 -1.3 29.6
23:40 1018 30.06 848 25.04 15.6 60.2 31 -1.3 29.6
23:45 1018 30.06 848 25.04 15.5 59.9 31 -1.3 29.7
23:50 1018 30.06 848 25.04 15.4 59.7 32 -1.2 29.8
23:55 1018 30.06 848 25.04 15.2 59.4 33 -0.7 30.8
24:00 1018 30.06 847 25.01 15.1 59.1 32 -1.4 29.4